Aeolos — V7PS2 — position and weather

sailwx.info

Track history (hours):
 
Tides and Currents Weather Stations Pressure Air Temp Water Temp Dewpoint Dewpoint Depression Visibility Wind Speed Wind Dir Waves Ship Positions

Aeolos

Last reported at 2016-Feb-05 11:03 UTC. Time now 2016-Feb-07 12:56 UTC.
Position N 50°30' W 000°05'.

Length 172 m; draft 8.7 m.

Type: Cargo ship. MMSI: 538003275.

Date/timePositionNaut miles runAvg speedWind from/ knotsBaromVisibWave heightAir tempDewpointWater temp
2016-Feb-05 11:03N 50°30' W 000°05'713.9
2016-Feb-05 10:32N 50°32' E 000°05'4112.4
2016-Feb-05 07:13N 50°51' E 001°03'912.9
2016-Feb-05 06:34N 50°56' E 001°13'1413.9
2016-Feb-05 05:34N 51°05' E 001°30'1515.0
2016-Feb-05 04:34N 51°16' E 001°48'1514.5
2016-Feb-05 03:34N 51°28' E 001°59'1413.9
2016-Feb-05 02:33N 51°39' E 002°14'1413.4
2016-Feb-05 01:32N 51°49' E 002°28'41212.8
2016-Feb-03 17:12N 57°34' E 008°58'4511.7
2016-Feb-03 13:22N 57°49' E 010°18'911.7
2016-Feb-03 12:33N 57°49' E 010°36'1211.6
2016-Feb-03 11:33N 57°44' E 010°56'1313.2
2016-Feb-03 10:33N 57°35' E 011°14'1313.1
2016-Feb-03 09:33N 57°24' E 011°29'1313.3
2016-Feb-03 08:33N 57°12' E 011°37'1313.0
2016-Feb-03 07:33N 56°60' E 011°45'1212.1
2016-Feb-03 06:33N 56°48' E 011°53'1211.9
2016-Feb-03 05:33N 56°37' E 011°46'8011.3
2016-Feb-02 22:31N 55°21' E 011°02'1010.7
2016-Feb-02 21:33N 55°11' E 011°05'1212.3
2016-Feb-02 20:33N 54°59' E 011°01'1110.8
2016-Feb-02 19:33N 54°49' E 010°52'1010.1
2016-Feb-02 18:33N 54°40' E 010°60'1110.9
2016-Feb-02 17:33N 54°35' E 011°16'1111.1
2016-Feb-02 16:33N 54°30' E 011°34'1111.3
2016-Feb-02 15:33N 54°26' E 011°52'1111.2
2016-Feb-02 14:33N 54°28' E 012°10'1211.7
2016-Feb-02 13:33N 54°39' E 012°20'4812.0
2016-Feb-02 09:32N 54°57' E 013°37'1111.7
2016-Feb-02 08:33N 55°02' E 013°55'1111.5
2016-Feb-02 07:33N 55°09' E 014°11'1212.4
2016-Feb-02 06:33N 55°19' E 014°24'1211.7
2016-Feb-02 05:33N 55°27' E 014°39'1211.7
2016-Feb-02 04:33N 55°30' E 014°59'1111.0
2016-Feb-02 03:33N 55°29' E 015°18'1111.3
2016-Feb-02 02:33N 55°27' E 015°38'9211.4
2016-Feb-01 18:29N 55°04' E 018°14'1313.5
2016-Feb-01 17:33N 55°00' E 018°35'1413.6
2016-Feb-01 16:33N 54°56' E 018°57'1413.7
2016-Feb-01 15:33N 54°50' E 019°19'1313.4
2016-Feb-01 14:33N 54°44' E 019°39'11 9.8
2016-Feb-01 13:24N 54°38' E 019°56'  
Track history (hours):
 
Tides and Currents Weather Stations Pressure Air Temp Water Temp Dewpoint Dewpoint Depression Visibility Wind Speed Wind Dir Waves Ship Positions

Aeolos

Last reported at 2016-Feb-05 11:03 UTC. Time now 2016-Feb-07 12:56 UTC.
Position N 50°30' W 000°05'.

Length 172 m; draft 8.7 m.

Type: Cargo ship. MMSI: 538003275.

Date/timePositionNaut miles runAvg speedWind from/ knotsBaromVisibWave heightAir tempDewpointWater temp
2016-Feb-05 11:03N 50°30' W 000°05'713.9
2016-Feb-05 10:32N 50°32' E 000°05'4112.4
2016-Feb-05 07:13N 50°51' E 001°03'912.9
2016-Feb-05 06:34N 50°56' E 001°13'1413.9
2016-Feb-05 05:34N 51°05' E 001°30'1515.0
2016-Feb-05 04:34N 51°16' E 001°48'1514.5
2016-Feb-05 03:34N 51°28' E 001°59'1413.9
2016-Feb-05 02:33N 51°39' E 002°14'1413.4
2016-Feb-05 01:32N 51°49' E 002°28'41212.8
2016-Feb-03 17:12N 57°34' E 008°58'4511.7
2016-Feb-03 13:22N 57°49' E 010°18'911.7
2016-Feb-03 12:33N 57°49' E 010°36'1211.6
2016-Feb-03 11:33N 57°44' E 010°56'1313.2
2016-Feb-03 10:33N 57°35' E 011°14'1313.1
2016-Feb-03 09:33N 57°24' E 011°29'1313.3
2016-Feb-03 08:33N 57°12' E 011°37'1313.0
2016-Feb-03 07:33N 56°60' E 011°45'1212.1
2016-Feb-03 06:33N 56°48' E 011°53'1211.9
2016-Feb-03 05:33N 56°37' E 011°46'8011.3
2016-Feb-02 22:31N 55°21' E 011°02'1010.7
2016-Feb-02 21:33N 55°11' E 011°05'1212.3
2016-Feb-02 20:33N 54°59' E 011°01'1110.8
2016-Feb-02 19:33N 54°49' E 010°52'1010.1
2016-Feb-02 18:33N 54°40' E 010°60'1110.9
2016-Feb-02 17:33N 54°35' E 011°16'1111.1
2016-Feb-02 16:33N 54°30' E 011°34'1111.3
2016-Feb-02 15:33N 54°26' E 011°52'1111.2
2016-Feb-02 14:33N 54°28' E 012°10'1211.7
2016-Feb-02 13:33N 54°39' E 012°20'4812.0
2016-Feb-02 09:32N 54°57' E 013°37'1111.7
2016-Feb-02 08:33N 55°02' E 013°55'1111.5
2016-Feb-02 07:33N 55°09' E 014°11'1212.4
2016-Feb-02 06:33N 55°19' E 014°24'1211.7
2016-Feb-02 05:33N 55°27' E 014°39'1211.7
2016-Feb-02 04:33N 55°30' E 014°59'1111.0
2016-Feb-02 03:33N 55°29' E 015°18'1111.3
2016-Feb-02 02:33N 55°27' E 015°38'9211.4
2016-Feb-01 18:29N 55°04' E 018°14'1313.5
2016-Feb-01 17:33N 55°00' E 018°35'1413.6
2016-Feb-01 16:33N 54°56' E 018°57'1413.7
2016-Feb-01 15:33N 54°50' E 019°19'1313.4
2016-Feb-01 14:33N 54°44' E 019°39'11 9.8
2016-Feb-01 13:24N 54°38' E 019°56'  

Dump ship's entire track history